Time;durP1;ratioP1;P1;durP2;ratioP2;P2;SDS_P1;SDS_P2;PMS_P1;PMS_P2;Temp;Humidity;BMP_temperature;BMP_pressure;BME280_temperature;BME280_humidity;BME280_pressure;Samples;Min_cycle;Max_cycle;Signal;HPM_P1;HPM_P2
2022/02/23 00:00:32;;;;;;;10.38;3.40;;;7.40;99.90;;;;;;5012480;28;20041;-54
2022/02/23 00:02:58;;;;;;;16.08;4.25;;;7.40;99.90;;;;;;5012112;28;20132;-57
2022/02/23 00:05:23;;;;;;;7.63;3.22;;;7.30;99.90;;;;;;5012316;28;20107;-57
2022/02/23 00:07:49;;;;;;;14.23;3.17;;;7.30;99.90;;;;;;5012018;28;20030;-55
2022/02/23 00:10:14;;;;;;;12.90;4.00;;;7.20;99.90;;;;;;5011553;28;20025;-57
2022/02/23 00:12:40;;;;;;;10.73;3.78;;;7.30;99.90;;;;;;5011628;28;20045;-58
2022/02/23 00:15:06;;;;;;;12.88;3.10;;;7.20;99.90;;;;;;5012831;28;20707;-58
2022/02/23 00:17:32;;;;;;;15.73;4.43;;;7.20;99.90;;;;;;5012323;28;20103;-55
2022/02/23 00:19:57;;;;;;;13.98;3.60;;;7.10;99.90;;;;;;5012445;28;20061;-56
2022/02/23 00:22:23;;;;;;;12.32;3.92;;;7.20;99.90;;;;;;5012166;28;20473;-57
2022/02/23 00:24:49;;;;;;;10.02;3.22;;;7.10;99.90;;;;;;5011953;28;20117;-57
2022/02/23 00:27:15;;;;;;;12.07;3.85;;;7.10;99.90;;;;;;5012325;28;20029;-55
2022/02/23 00:29:41;;;;;;;9.75;3.53;;;7.10;99.90;;;;;;5011803;28;20030;-55
2022/02/23 00:32:07;;;;;;;13.88;3.63;;;7.20;99.90;;;;;;5011917;28;20097;-58
2022/02/23 00:34:33;;;;;;;11.00;3.17;;;7.20;99.90;;;;;;5011199;28;20065;-57
2022/02/23 00:36:59;;;;;;;13.27;4.70;;;7.10;99.90;;;;;;5012046;28;20439;-56
2022/02/23 00:39:25;;;;;;;10.05;3.40;;;7.10;99.90;;;;;;5012094;28;20026;-56
2022/02/23 00:41:51;;;;;;;23.45;6.20;;;7.10;99.90;;;;;;5011922;28;20034;-56
2022/02/23 00:44:17;;;;;;;9.77;3.40;;;7.10;99.90;;;;;;5011554;28;20060;-58
2022/02/23 00:46:43;;;;;;;14.40;5.13;;;7.00;99.90;;;;;;5002690;28;20029;-60
2022/02/23 00:49:09;;;;;;;11.10;3.55;;;7.00;99.90;;;;;;5011719;28;20116;-57
2022/02/23 00:51:35;;;;;;;20.58;4.35;;;7.10;99.90;;;;;;4991562;28;20482;-54
2022/02/23 00:54:00;;;;;;;15.50;4.20;;;7.00;99.90;;;;;;5012222;28;20044;-57
2022/02/23 00:56:26;;;;;;;9.85;3.45;;;7.10;99.90;;;;;;5012388;28;20034;-56
2022/02/23 00:58:52;;;;;;;14.80;3.53;;;7.00;99.90;;;;;;5011736;28;20496;-56
2022/02/23 01:01:18;;;;;;;10.30;3.92;;;6.90;99.90;;;;;;5012806;28;20034;-55
2022/02/23 01:03:44;;;;;;;12.35;3.85;;;7.00;99.90;;;;;;5012543;28;20038;-58
2022/02/23 01:06:10;;;;;;;9.55;3.25;;;6.90;99.90;;;;;;5013380;28;20030;-56
2022/02/23 01:08:35;;;;;;;7.43;2.47;;;7.00;99.90;;;;;;5013640;28;20030;-54
2022/02/23 01:11:02;;;;;;;8.13;2.83;;;6.90;99.90;;;;;;5013232;28;20486;-55
2022/02/23 01:13:27;;;;;;;6.20;2.70;;;6.80;99.90;;;;;;5012930;28;20084;-57
2022/02/23 01:15:53;;;;;;;7.15;3.10;;;6.80;99.90;;;;;;5021075;28;20042;-55
2022/02/23 01:18:19;;;;;;;8.23;2.92;;;6.80;99.90;;;;;;5015140;28;20030;-57
2022/02/23 01:20:44;;;;;;;7.68;2.47;;;6.70;99.90;;;;;;5036460;28;20029;-56
2022/02/23 01:23:10;;;;;;;8.98;2.70;;;6.70;99.90;;;;;;5036418;28;20472;-54
2022/02/23 01:25:36;;;;;;;7.78;2.50;;;6.70;99.90;;;;;;5036964;28;20030;-55
2022/02/23 01:28:05;;;;;;;8.82;3.17;;;6.60;99.90;;;;;;4993505;28;20490;-56
2022/02/23 01:30:32;;;;;;;11.43;2.97;;;6.60;99.90;;;;;;5025799;28;20025;-55
2022/02/23 01:32:58;;;;;;;11.02;3.35;;;6.70;99.90;;;;;;5016428;28;20036;-57
2022/02/23 01:35:24;;;;;;;13.00;3.40;;;6.70;99.90;;;;;;5017357;28;20045;-58
2022/02/23 01:37:51;;;;;;;7.32;3.20;;;6.60;99.90;;;;;;5016532;28;20034;-55
2022/02/23 01:40:17;;;;;;;10.18;3.42;;;6.40;99.90;;;;;;5015909;28;20585;-55
2022/02/23 01:42:43;;;;;;;14.30;4.40;;;6.40;99.90;;;;;;5016127;28;20125;-51
2022/02/23 01:45:08;;;;;;;11.05;3.30;;;6.40;99.90;;;;;;5015133;28;20034;-57
2022/02/23 01:47:34;;;;;;;11.73;4.03;;;6.40;99.90;;;;;;5015841;28;20030;-56
2022/02/23 01:50:00;;;;;;;9.82;3.70;;;6.40;99.90;;;;;;5016362;28;20034;-56
2022/02/23 01:52:26;;;;;;;13.73;3.10;;;6.40;99.90;;;;;;5016219;28;20077;-58
2022/02/23 01:54:55;;;;;;;9.45;3.42;;;6.40;99.90;;;;;;5016408;28;20060;-54
2022/02/23 01:57:21;;;;;;;9.98;3.00;;;6.20;99.90;;;;;;5016202;28;20038;-53
2022/02/23 01:59:48;;;;;;;7.38;2.92;;;6.30;99.90;;;;;;5015850;28;20034;-56
2022/02/23 02:02:13;;;;;;;10.13;3.72;;;6.20;99.90;;;;;;5015280;28;20057;-53
2022/02/23 02:04:39;;;;;;;10.60;3.45;;;6.10;99.90;;;;;;5017664;28;20493;-56
2022/02/23 02:07:04;;;;;;;9.40;3.22;;;6.10;99.90;;;;;;5015594;28;20033;-56
2022/02/23 02:09:30;;;;;;;13.98;4.32;;;6.10;99.90;;;;;;5016279;28;20076;-57
2022/02/23 02:11:56;;;;;;;13.68;3.53;;;6.20;99.90;;;;;;5015101;28;20034;-58
2022/02/23 02:14:21;;;;;;;10.55;3.90;;;6.20;99.90;;;;;;5014112;28;20052;-58
2022/02/23 02:16:47;;;;;;;9.95;3.55;;;6.10;99.90;;;;;;5027249;28;20523;-57
2022/02/23 02:19:13;;;;;;;15.30;3.10;;;6.10;99.90;;;;;;5015187;28;20037;-56
2022/02/23 02:21:58;;;;;;;11.88;3.30;;;6.10;99.90;;;;;;4997768;28;20065;-55
2022/02/23 02:24:27;;;;;;;10.98;3.33;;;6.00;99.90;;;;;;5015268;28;20030;-54
2022/02/23 02:26:53;;;;;;;13.07;3.78;;;6.00;99.90;;;;;;5015442;28;20040;-52
2022/02/23 02:29:19;;;;;;;11.98;3.13;;;5.90;99.90;;;;;;5015913;28;20040;-54
2022/02/23 02:31:46;;;;;;;11.38;3.75;;;6.10;99.90;;;;;;5014946;28;20049;-58
2022/02/23 02:34:12;;;;;;;12.27;3.35;;;6.10;99.90;;;;;;5015024;28;20104;-56
2022/02/23 02:36:38;;;;;;;14.80;3.67;;;6.10;99.90;;;;;;5015461;28;20034;-54
2022/02/23 02:39:06;;;;;;;9.65;2.97;;;6.10;99.90;;;;;;5014853;28;20045;-54
2022/02/23 02:41:32;;;;;;;14.27;3.40;;;6.20;99.90;;;;;;5015445;28;20030;-56
2022/02/23 02:43:58;;;;;;;11.20;3.20;;;6.10;99.90;;;;;;5013888;28;20037;-56
2022/02/23 02:46:23;;;;;;;15.02;3.55;;;6.20;99.90;;;;;;5015168;28;20037;-57
2022/02/23 02:48:49;;;;;;;11.20;3.47;;;6.10;99.90;;;;;;5014821;28;20049;-56
2022/02/23 02:51:14;;;;;;;13.75;3.50;;;6.10;99.90;;;;;;4997424;28;20033;-54
2022/02/23 02:53:40;;;;;;;16.00;3.35;;;6.10;99.90;;;;;;5014965;28;20030;-56
2022/02/23 02:56:06;;;;;;;16.08;4.07;;;6.10;99.90;;;;;;5015425;28;20057;-56
2022/02/23 02:58:31;;;;;;;11.77;3.90;;;5.90;99.90;;;;;;5017057;28;20096;-54
2022/02/23 03:00:57;;;;;;;14.27;5.10;;;5.80;99.90;;;;;;5016568;28;20037;-52
2022/02/23 03:03:22;;;;;;;17.00;4.55;;;5.70;99.90;;;;;;5014223;28;20042;-55
2022/02/23 03:05:48;;;;;;;11.88;4.10;;;5.70;99.90;;;;;;5014459;28;20038;-55
2022/02/23 03:08:15;;;;;;;13.52;4.72;;;5.70;99.90;;;;;;5014636;28;20084;-55
2022/02/23 03:10:43;;;;;;;13.68;3.70;;;5.70;99.90;;;;;;5014846;28;20080;-54
2022/02/23 03:13:09;;;;;;;11.13;4.38;;;5.70;99.90;;;;;;5013300;28;20037;-52
2022/02/23 03:15:36;;;;;;;14.93;4.57;;;5.70;99.90;;;;;;5021594;28;20120;-56
2022/02/23 03:18:02;;;;;;;18.08;4.88;;;5.60;99.90;;;;;;5033776;28;20473;-54
2022/02/23 03:20:28;;;;;;;28.02;5.18;;;5.60;99.90;;;;;;5034053;28;20036;-54
2022/02/23 03:22:53;;;;;;;18.23;5.07;;;5.60;99.90;;;;;;5034230;28;20374;-56
2022/02/23 03:25:19;;;;;;;16.70;4.25;;;5.60;99.90;;;;;;5034585;28;20141;-57
2022/02/23 03:27:46;;;;;;;10.95;3.60;;;5.50;99.90;;;;;;5034121;28;20452;-55
2022/02/23 03:30:12;;;;;;;20.13;4.53;;;5.60;99.90;;;;;;5032320;28;20021;-50
2022/02/23 03:32:38;;;;;;;21.02;4.75;;;5.60;99.90;;;;;;5014597;28;20080;-55
2022/02/23 03:35:04;;;;;;;17.45;4.10;;;5.60;99.90;;;;;;5014002;28;20042;-56
2022/02/23 03:37:30;;;;;;;14.98;4.75;;;5.70;99.90;;;;;;5013661;28;20038;-57
2022/02/23 03:39:56;;;;;;;16.10;5.15;;;5.60;99.90;;;;;;5014141;28;20090;-53
2022/02/23 03:42:21;;;;;;;18.48;4.63;;;5.50;99.90;;;;;;5012911;28;20041;-54
2022/02/23 03:44:47;;;;;;;14.02;4.22;;;5.60;99.90;;;;;;5014083;28;20040;-57
2022/02/23 03:47:13;;;;;;;13.57;3.45;;;5.60;99.90;;;;;;5007949;28;20030;-56
2022/02/23 03:49:39;;;;;;;17.90;5.10;;;5.60;99.90;;;;;;5014243;28;20033;-56
2022/02/23 03:52:05;;;;;;;18.90;4.50;;;5.50;99.90;;;;;;5013980;28;20022;-55
2022/02/23 03:54:30;;;;;;;20.73;4.63;;;5.60;99.90;;;;;;5013918;28;20037;-55
2022/02/23 03:56:56;;;;;;;18.52;4.60;;;5.60;99.90;;;;;;5012339;28;20042;-56
2022/02/23 03:59:21;;;;;;;21.05;4.30;;;5.50;99.90;;;;;;5014295;28;20034;-56
2022/02/23 04:01:47;;;;;;;22.55;5.63;;;5.60;99.90;;;;;;5013811;28;20493;-53
2022/02/23 04:04:14;;;;;;;21.40;5.00;;;5.50;99.90;;;;;;5013020;28;20034;-54
2022/02/23 04:06:40;;;;;;;17.45;4.80;;;5.50;99.90;;;;;;5013802;28;20121;-56
2022/02/23 04:09:08;;;;;;;18.67;4.80;;;5.60;99.90;;;;;;5013523;28;20066;-57
2022/02/23 04:11:34;;;;;;;22.42;4.88;;;5.50;99.90;;;;;;4996573;28;20022;-57
2022/02/23 04:14:01;;;;;;;17.77;5.30;;;5.60;99.90;;;;;;4992869;28;20046;-57
2022/02/23 04:16:26;;;;;;;21.75;5.68;;;5.50;99.90;;;;;;5014851;28;20069;-58
2022/02/23 04:18:53;;;;;;;16.58;5.63;;;5.60;99.90;;;;;;4995228;28;20080;-57
2022/02/23 04:21:18;;;;;;;21.70;4.78;;;5.50;99.90;;;;;;5013208;28;20113;-57
2022/02/23 04:23:45;;;;;;;19.60;4.50;;;5.60;99.90;;;;;;5013656;28;20129;-56
2022/02/23 04:26:12;;;;;;;16.42;5.20;;;5.60;99.90;;;;;;5014435;28;20025;-54
2022/02/23 04:28:38;;;;;;;16.05;4.15;;;5.60;99.90;;;;;;5013871;28;20171;-57
2022/02/23 04:31:04;;;;;;;22.75;4.88;;;5.60;99.90;;;;;;5013427;28;20026;-56
2022/02/23 04:33:30;;;;;;;13.90;4.72;;;5.70;99.90;;;;;;5018926;28;20041;-56
2022/02/23 04:35:56;;;;;;;19.75;5.60;;;5.80;99.90;;;;;;5013186;28;20044;-53
2022/02/23 04:38:21;;;;;;;22.58;4.85;;;5.80;99.90;;;;;;4995210;28;20494;-55
2022/02/23 04:40:47;;;;;;;21.15;4.68;;;5.80;99.90;;;;;;5013148;28;20045;-55
2022/02/23 04:43:14;;;;;;;19.80;4.68;;;5.80;99.90;;;;;;5012452;28;20489;-57
2022/02/23 04:45:40;;;;;;;15.40;5.22;;;5.80;99.90;;;;;;5012891;28;20030;-55
2022/02/23 04:48:06;;;;;;;14.88;5.07;;;5.80;99.90;;;;;;5015686;28;20086;-56
2022/02/23 04:50:32;;;;;;;20.98;5.78;;;5.80;99.90;;;;;;5012710;28;20112;-54
2022/02/23 04:52:58;;;;;;;16.85;5.75;;;5.80;99.90;;;;;;5004611;28;20482;-53
2022/02/23 04:55:24;;;;;;;19.95;4.97;;;5.80;99.90;;;;;;5015773;28;20041;-57
2022/02/23 04:57:49;;;;;;;16.20;4.47;;;5.80;99.90;;;;;;5016988;28;20030;-56
2022/02/23 05:00:16;;;;;;;21.75;5.15;;;5.80;99.90;;;;;;5016009;28;20037;-53
2022/02/23 05:02:41;;;;;;;17.80;5.38;;;5.90;99.90;;;;;;5002545;28;20030;-56
2022/02/23 05:05:07;;;;;;;23.77;5.15;;;6.00;99.90;;;;;;5021437;28;20040;-57
2022/02/23 05:07:34;;;;;;;11.93;4.68;;;6.10;99.90;;;;;;5020526;28;20029;-55
2022/02/23 05:10:00;;;;;;;20.05;4.78;;;6.10;99.90;;;;;;5002594;28;20113;-56
2022/02/23 05:12:26;;;;;;;12.25;4.63;;;6.00;99.90;;;;;;5019747;28;20034;-52
2022/02/23 05:14:52;;;;;;;16.02;5.35;;;6.10;99.90;;;;;;5019863;28;20041;-56
2022/02/23 05:17:18;;;;;;;18.23;5.00;;;6.00;99.90;;;;;;4988345;28;20039;-52
2022/02/23 05:19:44;;;;;;;21.70;5.43;;;6.00;99.90;;;;;;5016943;28;20045;-55
2022/02/23 05:22:10;;;;;;;14.30;4.57;;;5.90;99.90;;;;;;5016476;28;20421;-53
2022/02/23 05:24:36;;;;;;;19.92;4.57;;;6.00;99.90;;;;;;5024183;28;20102;-56
2022/02/23 05:27:02;;;;;;;15.45;4.57;;;6.00;99.90;;;;;;5017071;28;20029;-52
2022/02/23 05:29:28;;;;;;;16.90;4.90;;;5.90;99.90;;;;;;5017386;28;20018;-52
2022/02/23 05:31:54;;;;;;;17.83;4.78;;;6.00;99.90;;;;;;5018173;28;20081;-53
2022/02/23 05:34:20;;;;;;;17.67;5.03;;;5.90;99.90;;;;;;5022601;28;20037;-54
2022/02/23 05:36:46;;;;;;;18.02;5.45;;;5.80;99.90;;;;;;5017212;28;20034;-54
2022/02/23 05:39:13;;;;;;;20.80;5.72;;;5.80;99.90;;;;;;5015133;28;20029;-54
2022/02/23 05:41:39;;;;;;;20.88;5.18;;;5.80;99.90;;;;;;5016740;28;20046;-53
2022/02/23 05:44:04;;;;;;;18.38;5.15;;;5.70;99.90;;;;;;5014424;28;20154;-55
2022/02/23 05:46:30;;;;;;;19.67;4.90;;;5.70;99.90;;;;;;5017583;28;20034;-52
2022/02/23 05:48:56;;;;;;;14.68;5.15;;;5.70;99.90;;;;;;5016659;28;20575;-56
2022/02/23 05:51:31;;;;;;;19.35;4.78;;;5.70;99.90;;;;;;5016447;28;20034;-53
2022/02/23 05:53:57;;;;;;;19.77;4.88;;;5.80;99.90;;;;;;5016546;28;20675;-55
2022/02/23 05:56:22;;;;;;;21.38;5.70;;;5.90;99.90;;;;;;5016364;28;20478;-52
2022/02/23 05:58:48;;;;;;;15.55;4.47;;;5.80;99.90;;;;;;5015592;28;20045;-52
2022/02/23 06:01:14;;;;;;;22.50;5.53;;;5.80;99.90;;;;;;5016692;28;20493;-51
2022/02/23 06:03:40;;;;;;;20.35;5.22;;;5.70;99.90;;;;;;5016229;28;20125;-58
2022/02/23 06:06:06;;;;;;;22.13;4.63;;;5.70;99.90;;;;;;5016050;28;20127;-57
2022/02/23 06:08:31;;;;;;;18.00;4.80;;;5.60;99.90;;;;;;5016621;28;20038;-52
2022/02/23 06:10:57;;;;;;;13.35;4.93;;;5.60;99.90;;;;;;5016199;28;20443;-54
2022/02/23 06:13:23;;;;;;;19.48;5.05;;;5.70;99.90;;;;;;5015938;28;20134;-56
2022/02/23 06:15:49;;;;;;;25.10;7.80;;;5.70;99.90;;;;;;5015519;28;20042;-53
2022/02/23 06:18:15;;;;;;;22.63;6.80;;;5.70;99.90;;;;;;5016463;28;20397;-55
2022/02/23 06:20:41;;;;;;;15.73;5.90;;;5.70;99.90;;;;;;5016651;28;20034;-53
2022/02/23 06:23:06;;;;;;;18.30;5.60;;;5.70;99.90;;;;;;5014577;28;20426;-58
2022/02/23 06:25:32;;;;;;;19.80;4.82;;;5.70;99.90;;;;;;5016531;28;20041;-54
2022/02/23 06:27:58;;;;;;;20.73;4.70;;;5.60;99.90;;;;;;5016208;28;20026;-55
2022/02/23 06:30:24;;;;;;;20.65;5.00;;;5.60;99.90;;;;;;5015860;28;20022;-53
2022/02/23 06:32:49;;;;;;;17.83;5.00;;;5.50;99.90;;;;;;5015624;28;20033;-55
2022/02/23 06:35:15;;;;;;;17.20;4.63;;;5.50;99.90;;;;;;5024996;28;20363;-54
2022/02/23 06:37:40;;;;;;;19.67;4.90;;;5.60;99.90;;;;;;5020051;28;20513;-57
2022/02/23 06:40:08;;;;;;;19.92;4.53;;;5.70;99.90;;;;;;5016137;28;20508;-54
2022/02/23 06:42:36;;;;;;;18.48;5.57;;;5.70;99.90;;;;;;5015315;28;20026;-58
2022/02/23 06:45:04;;;;;;;19.60;5.68;;;5.70;99.90;;;;;;5013870;28;20036;-56
2022/02/23 06:47:29;;;;;;;14.10;4.22;;;5.70;99.90;;;;;;5015160;28;20034;-55
2022/02/23 06:49:55;;;;;;;15.45;4.45;;;5.90;99.90;;;;;;5015892;28;20088;-58
2022/02/23 06:52:22;;;;;;;13.82;4.18;;;5.90;99.90;;;;;;5016182;28;20108;-53
2022/02/23 06:54:48;;;;;;;18.63;5.45;;;6.00;99.90;;;;;;4997959;28;20026;-56
2022/02/23 06:57:14;;;;;;;21.15;5.65;;;6.20;99.90;;;;;;5015308;28;20033;-56
2022/02/23 06:59:40;;;;;;;19.10;5.03;;;6.20;99.90;;;;;;5015521;28;20393;-54
2022/02/23 07:02:08;;;;;;;18.35;5.60;;;6.10;99.90;;;;;;4997451;28;20033;-56
2022/02/23 07:04:34;;;;;;;15.13;4.55;;;6.00;99.90;;;;;;4996852;28;20030;-59
2022/02/23 07:07:00;;;;;;;17.60;5.05;;;5.90;99.90;;;;;;5014398;28;20478;-57
2022/02/23 07:09:25;;;;;;;14.15;4.32;;;5.90;99.90;;;;;;5013246;28;20033;-55
2022/02/23 07:11:52;;;;;;;15.07;4.53;;;6.10;99.90;;;;;;5014713;28;20033;-56
2022/02/23 07:14:19;;;;;;;14.30;4.47;;;6.10;99.90;;;;;;5014020;28;20037;-57
2022/02/23 07:16:45;;;;;;;24.10;5.50;;;6.00;99.90;;;;;;5013078;28;20034;-55
2022/02/23 07:19:10;;;;;;;18.38;4.47;;;6.10;99.90;;;;;;5014094;28;20033;-55
2022/02/23 07:21:38;;;;;;;20.10;5.18;;;6.10;99.90;;;;;;5014729;28;20034;-55
2022/02/23 07:24:05;;;;;;;14.85;4.28;;;6.20;99.90;;;;;;5014303;28;20034;-54
2022/02/23 07:26:31;;;;;;;15.05;5.03;;;6.30;99.90;;;;;;5014802;28;20555;-59
2022/02/23 07:28:57;;;;;;;15.52;4.28;;;6.30;99.90;;;;;;4997722;28;20034;-58
2022/02/23 07:31:22;;;;;;;16.02;4.50;;;6.30;99.90;;;;;;5015163;28;20026;-58
2022/02/23 07:33:48;;;;;;;13.57;4.25;;;6.20;99.90;;;;;;5014693;28;20038;-57
2022/02/23 07:36:15;;;;;;;15.90;4.60;;;6.30;99.90;;;;;;5031077;28;20635;-54
2022/02/23 07:38:42;;;;;;;18.05;4.20;;;6.30;99.90;;;;;;5016090;28;20037;-59
2022/02/23 07:41:11;;;;;;;15.48;3.83;;;6.40;99.90;;;;;;5028301;28;20034;-58
2022/02/23 07:43:37;;;;;;;17.85;4.72;;;6.40;99.90;;;;;;5012880;28;20041;-58
2022/02/23 07:46:09;;;;;;;14.02;4.72;;;6.40;99.90;;;;;;5014938;28;20026;-52
2022/02/23 07:48:37;;;;;;;22.10;4.90;;;6.40;99.90;;;;;;5014279;28;20030;-57
2022/02/23 07:51:04;;;;;;;13.00;4.20;;;6.50;99.90;;;;;;5014641;28;20026;-54
2022/02/23 07:53:31;;;;;;;15.82;4.72;;;6.50;99.90;;;;;;4996658;28;20026;-56
2022/02/23 07:56:01;;;;;;;17.92;4.40;;;6.40;99.90;;;;;;5013008;28;20040;-56
2022/02/23 07:58:26;;;;;;;15.75;4.13;;;6.40;99.90;;;;;;5013549;28;20424;-57
2022/02/23 08:00:52;;;;;;;13.75;4.47;;;6.60;99.90;;;;;;4996862;28;20033;-53
2022/02/23 08:03:18;;;;;;;12.95;4.57;;;6.50;99.90;;;;;;5012847;28;20037;-55
2022/02/23 08:05:43;;;;;;;19.20;4.55;;;6.70;99.90;;;;;;4996044;28;20062;-55
2022/02/23 08:08:09;;;;;;;16.88;4.63;;;6.60;99.90;;;;;;5013416;28;20038;-55
2022/02/23 08:10:35;;;;;;;22.15;5.35;;;6.70;99.90;;;;;;5014007;28;20109;-51
2022/02/23 08:13:04;;;;;;;19.25;4.93;;;6.60;99.90;;;;;;5013761;28;20422;-55
2022/02/23 08:20:58;;;;;;;15.02;4.18;;;6.70;99.90;;;;;;5013968;28;20029;-55
2022/02/23 08:23:24;;;;;;;14.15;4.68;;;6.80;99.90;;;;;;5013759;28;20041;-60
2022/02/23 08:25:50;;;;;;;11.70;3.90;;;6.90;99.90;;;;;;4997832;28;20133;-55
2022/02/23 08:28:16;;;;;;;16.02;4.35;;;6.90;99.90;;;;;;5016108;28;20066;-54
2022/02/23 08:30:42;;;;;;;13.20;4.35;;;7.00;99.90;;;;;;5014574;28;20160;-55
2022/02/23 08:33:07;;;;;;;21.65;5.68;;;7.00;99.90;;;;;;5012671;28;20085;-56
2022/02/23 08:35:33;;;;;;;14.73;4.47;;;7.00;99.90;;;;;;5012391;28;20486;-56
2022/02/23 08:37:59;;;;;;;16.50;4.43;;;7.20;99.90;;;;;;5012750;28;20038;-55
2022/02/23 08:40:26;;;;;;;21.08;5.18;;;7.20;99.90;;;;;;5011850;28;20041;-55
2022/02/23 08:42:52;;;;;;;14.35;3.88;;;7.20;99.90;;;;;;5012569;28;20030;-57
2022/02/23 08:45:18;;;;;;;23.20;5.15;;;7.10;99.90;;;;;;5012588;28;20030;-57
2022/02/23 08:47:43;;;;;;;16.63;4.72;;;7.30;99.90;;;;;;5013242;28;20054;-57
2022/02/23 08:50:09;;;;;;;12.82;3.85;;;7.20;99.90;;;;;;5012851;28;20508;-55
2022/02/23 08:52:35;;;;;;;21.42;4.88;;;7.30;99.90;;;;;;5013273;28;20153;-56
2022/02/23 08:55:00;;;;;;;13.07;4.53;;;7.40;99.90;;;;;;5013976;28;20037;-59
2022/02/23 08:57:26;;;;;;;14.27;3.90;;;7.50;99.90;;;;;;5013640;28;20128;-57
2022/02/23 08:59:52;;;;;;;16.27;4.82;;;7.50;99.90;;;;;;5013642;28;20113;-56
2022/02/23 09:02:17;;;;;;;17.55;4.18;;;7.70;99.90;;;;;;5012486;28;20042;-56
2022/02/23 09:04:43;;;;;;;14.02;4.28;;;7.70;99.90;;;;;;5012797;28;20026;-57
2022/02/23 09:07:10;;;;;;;14.85;5.97;;;7.70;99.90;;;;;;5013257;28;20084;-55
2022/02/23 09:09:37;;;;;;;15.40;5.32;;;7.70;99.90;;;;;;4995318;28;20037;-57
2022/02/23 09:12:04;;;;;;;16.02;4.18;;;7.50;99.90;;;;;;5012486;28;20121;-62
2022/02/23 09:14:30;;;;;;;15.98;5.03;;;7.60;99.90;;;;;;5012710;28;20077;-54
2022/02/23 09:16:55;;;;;;;17.33;5.72;;;7.70;99.70;;;;;;5012601;28;20080;-53
2022/02/23 09:19:21;;;;;;;15.27;3.90;;;7.80;99.70;;;;;;5012923;28;20032;-52
2022/02/23 09:21:47;;;;;;;18.00;4.97;;;7.70;99.80;;;;;;5013220;28;20053;-56
2022/02/23 09:24:13;;;;;;;13.98;4.07;;;7.70;99.70;;;;;;5012671;28;20038;-52
2022/02/23 09:26:38;;;;;;;14.18;4.25;;;7.80;99.60;;;;;;5012759;28;20030;-54
2022/02/23 09:29:04;;;;;;;18.98;5.35;;;7.80;99.70;;;;;;5013490;28;20030;-57
2022/02/23 09:31:31;;;;;;;21.00;5.10;;;7.80;99.90;;;;;;5012919;28;20116;-56
2022/02/23 09:33:57;;;;;;;14.40;4.78;;;7.60;99.90;;;;;;5012435;28;20501;-56
2022/02/23 09:36:23;;;;;;;15.98;5.25;;;7.60;99.90;;;;;;5031587;28;20095;-55
2022/02/23 09:38:49;;;;;;;18.80;4.90;;;7.80;99.60;;;;;;5031974;28;20049;-56
2022/02/23 09:41:16;;;;;;;13.50;4.80;;;7.70;99.70;;;;;;5027138;28;20030;-55
2022/02/23 09:43:46;;;;;;;16.90;4.45;;;7.70;99.40;;;;;;5015512;28;20026;-55
2022/02/23 09:46:18;;;;;;;13.13;4.38;;;7.80;99.10;;;;;;5017420;28;20073;-56
2022/02/23 09:48:44;;;;;;;12.43;4.85;;;7.90;99.30;;;;;;5000877;28;20049;-55
2022/02/23 09:51:10;;;;;;;11.30;4.60;;;8.00;98.70;;;;;;5017844;28;20486;-55
2022/02/23 09:53:38;;;;;;;13.85;4.35;;;8.10;98.70;;;;;;4998110;28;20088;-56
2022/02/23 09:56:04;;;;;;;10.70;4.30;;;8.10;98.60;;;;;;5015905;28;20030;-55
2022/02/23 09:58:30;;;;;;;14.35;4.80;;;8.00;98.40;;;;;;5014554;28;20034;-55
2022/02/23 10:00:56;;;;;;;13.38;4.53;;;8.10;98.40;;;;;;5015320;28;20138;-58
2022/02/23 10:03:24;;;;;;;24.65;5.40;;;7.90;98.80;;;;;;5016171;28;20034;-57
2022/02/23 10:05:50;;;;;;;16.42;4.20;;;8.00;99.00;;;;;;5016363;28;20026;-54
2022/02/23 10:08:15;;;;;;;17.00;5.25;;;8.00;98.50;;;;;;5015953;28;20026;-58
2022/02/23 10:10:43;;;;;;;15.40;4.70;;;8.10;98.50;;;;;;5015842;28;20034;-53
2022/02/23 10:13:10;;;;;;;17.80;4.88;;;8.20;98.50;;;;;;5015842;28;20489;-55
2022/02/23 10:15:41;;;;;;;14.35;4.45;;;8.30;97.90;;;;;;5015687;28;20038;-54
2022/02/23 10:18:09;;;;;;;17.23;5.05;;;8.20;98.00;;;;;;4998139;28;20397;-59
2022/02/23 10:20:39;;;;;;;15.35;4.72;;;8.30;98.10;;;;;;5015694;28;20037;-56
2022/02/23 10:23:15;;;;;;;18.45;4.57;;;8.20;98.10;;;;;;5014673;28;20026;-53
2022/02/23 10:25:44;;;;;;;17.50;4.50;;;8.30;98.10;;;;;;5014971;28;20122;-53
2022/02/23 10:28:17;;;;;;;12.32;4.75;;;8.30;98.20;;;;;;4997754;28;20413;-57
2022/02/23 10:30:51;;;;;;;15.32;4.18;;;8.40;98.00;;;;;;5015294;28;20058;-56
2022/02/23 10:33:22;;;;;;;17.65;5.10;;;8.50;97.60;;;;;;5014942;28;20506;-53
2022/02/23 10:36:07;;;;;;;13.32;4.63;;;8.50;97.20;;;;;;5029754;28;20056;-57
2022/02/23 10:38:39;;;;;;;15.93;4.65;;;8.50;97.30;;;;;;5035171;28;20371;-57
2022/02/23 10:41:22;;;;;;;13.38;4.15;;;8.50;97.40;;;;;;5030939;28;20030;-54
2022/02/23 10:43:47;;;;;;;11.48;4.35;;;8.40;97.40;;;;;;4997586;28;20044;-53
2022/02/23 10:46:15;;;;;;;16.23;4.72;;;8.40;97.30;;;;;;5014127;28;20390;-55
2022/02/23 10:48:46;;;;;;;13.70;4.05;;;8.50;97.20;;;;;;5015404;28;20061;-53
2022/02/23 10:51:17;;;;;;;15.55;5.30;;;8.40;97.50;;;;;;5016201;28;20367;-52
2022/02/23 10:53:43;;;;;;;13.82;4.82;;;8.40;97.70;;;;;;5015261;28;20705;-57
2022/02/23 10:56:25;;;;;;;18.60;4.03;;;8.60;97.50;;;;;;5015136;28;20065;-57
2022/02/23 10:59:02;;;;;;;13.85;4.32;;;8.60;96.40;;;;;;5014879;28;20030;-55
2022/02/23 11:01:29;;;;;;;15.40;3.80;;;8.60;96.20;;;;;;5015175;28;20032;-55
2022/02/23 11:03:55;;;;;;;12.45;3.97;;;8.60;96.40;;;;;;5014561;28;20082;-55
2022/02/23 11:06:23;;;;;;;13.48;3.88;;;8.80;96.10;;;;;;5014695;28;20468;-55
2022/02/23 11:08:50;;;;;;;8.98;3.70;;;8.80;95.60;;;;;;5015531;28;20548;-55
2022/02/23 11:11:20;;;;;;;12.10;3.85;;;8.90;95.60;;;;;;5016385;28;20030;-55
2022/02/23 11:13:47;;;;;;;14.55;4.28;;;8.80;95.30;;;;;;5015188;28;20485;-59
2022/02/23 11:16:13;;;;;;;13.38;4.55;;;8.80;95.40;;;;;;5015083;28;20045;-56
2022/02/23 11:18:44;;;;;;;10.82;4.15;;;8.70;95.50;;;;;;5015548;28;20389;-56
2022/02/23 11:21:12;;;;;;;19.55;4.53;;;8.70;95.70;;;;;;5015191;28;20034;-57
2022/02/23 11:23:39;;;;;;;14.95;4.35;;;8.60;95.50;;;;;;5013937;28;20061;-53
2022/02/23 11:26:05;;;;;;;11.50;4.10;;;8.80;95.50;;;;;;5014860;28;20393;-53
2022/02/23 11:28:34;;;;;;;15.23;4.63;;;8.90;95.60;;;;;;5014773;28;20032;-54
2022/02/23 11:31:11;;;;;;;17.35;4.70;;;8.80;95.60;;;;;;5014899;28;20573;-53
2022/02/23 11:34:02;;;;;;;10.73;3.75;;;8.80;95.70;;;;;;5016154;28;20030;-59
2022/02/23 11:36:42;;;;;;;21.02;4.07;;;8.90;95.40;;;;;;5036189;28;20045;-58
2022/02/23 11:39:15;;;;;;;9.00;3.65;;;9.10;94.60;;;;;;5019537;28;20041;-59
2022/02/23 11:41:53;;;;;;;11.45;3.80;;;9.10;94.20;;;;;;5028080;28;20061;-56
2022/02/23 11:44:26;;;;;;;10.82;3.63;;;8.90;94.20;;;;;;5015251;28;20447;-56
2022/02/23 11:47:11;;;;;;;12.57;3.97;;;8.80;94.50;;;;;;5014400;28;20033;-58
2022/02/23 11:49:55;;;;;;;11.98;4.05;;;9.00;93.90;;;;;;4996361;28;20081;-56
2022/02/23 11:59:11;;;;;;;14.38;4.25;;;9.20;93.60;;;;;;5014023;28;20033;-58
2022/02/23 12:01:57;;;;;;;11.20;3.80;;;9.30;93.40;;;;;;5014314;28;20030;-60
2022/02/23 12:04:22;;;;;;;9.32;3.55;;;9.30;93.20;;;;;;4995671;28;20061;-59
2022/02/23 12:07:14;;;;;;;13.77;3.72;;;9.50;93.10;;;;;;5014035;28;20026;-57
2022/02/23 12:09:48;;;;;;;11.82;4.65;;;9.50;92.60;;;;;;5014065;28;20053;-59
2022/02/23 12:12:30;;;;;;;10.45;3.72;;;9.50;92.80;;;;;;5013930;28;20037;-59
2022/02/23 12:14:56;;;;;;;9.98;3.50;;;9.60;91.90;;;;;;5013480;28;20033;-56
2022/02/23 12:17:49;;;;;;;9.93;3.35;;;9.60;92.20;;;;;;5013692;28;20114;-58
2022/02/23 12:20:37;;;;;;;7.82;3.47;;;9.50;92.00;;;;;;5013430;28;20049;-59
2022/02/23 12:23:08;;;;;;;8.27;3.53;;;9.60;91.90;;;;;;5013298;28;20040;-53
2022/02/23 12:25:56;;;;;;;9.88;3.47;;;9.60;91.50;;;;;;5014157;28;20097;-53
2022/02/23 12:28:24;;;;;;;10.88;3.63;;;9.60;91.80;;;;;;5014903;28;20457;-54
2022/02/23 12:31:00;;;;;;;13.75;4.07;;;9.80;91.50;;;;;;5014034;28;20030;-57
2022/02/23 12:33:27;;;;;;;7.78;3.63;;;9.60;91.20;;;;;;5015111;28;20057;-57
2022/02/23 12:35:54;;;;;;;9.18;3.20;;;9.70;91.50;;;;;;5029754;28;20087;-54
2022/02/23 12:38:33;;;;;;;8.75;3.00;;;9.80;91.20;;;;;;5034386;28;20043;-57
2022/02/23 12:41:00;;;;;;;11.32;4.00;;;9.80;90.70;;;;;;4996297;28;20034;-59
2022/02/23 12:43:28;;;;;;;8.65;3.63;;;9.70;90.00;;;;;;5013808;28;20104;-56
2022/02/23 12:45:58;;;;;;;8.73;3.25;;;9.90;90.10;;;;;;5013737;28;20460;-57
2022/02/23 12:48:24;;;;;;;12.40;3.75;;;9.90;90.20;;;;;;5013400;28;20018;-57
2022/02/23 12:50:55;;;;;;;11.20;3.67;;;10.10;90.20;;;;;;5013895;28;20117;-54
2022/02/23 12:53:38;;;;;;;10.25;4.20;;;10.00;90.10;;;;;;4994863;28;20138;-57
2022/02/23 12:56:26;;;;;;;8.40;3.60;;;10.10;90.10;;;;;;5013937;28;20543;-54
2022/02/23 12:58:54;;;;;;;11.93;3.30;;;10.10;88.50;;;;;;5013155;28;20037;-54
2022/02/23 13:01:26;;;;;;;11.63;4.30;;;10.00;89.10;;;;;;5013486;28;20105;-56